Time;durP1;ratioP1;P1;durP2;ratioP2;P2;SDS_P1;SDS_P2;PMS_P1;PMS_P2;Temp;Humidity;BMP_temperature;BMP_pressure;BME280_temperature;BME280_humidity;BME280_pressure;Samples;Min_cycle;Max_cycle;Signal;HPM_P1;HPM_P2
2022/07/13 00:00:16;;;;;;;1.30;0.60;;;13.40;1.40;;;14.54;100.00;96191.34;646250;213;31518;-74
2022/07/13 00:02:58;;;;;;;0.90;0.52;;;13.30;1.40;;;14.50;100.00;96190.98;646575;212;31463;-74
2022/07/13 00:05:39;;;;;;;0.60;0.60;;;13.30;1.40;;;14.36;100.00;96191.48;645841;216;31717;-75
2022/07/13 00:08:21;;;;;;;0.65;0.50;;;13.10;1.40;;;14.23;100.00;96189.78;646799;212;31491;-74
2022/07/13 00:11:06;;;;;;;0.70;0.70;;;13.00;1.40;;;14.23;100.00;96182.16;647077;212;42119;-75
2022/07/13 00:13:47;;;;;;;0.60;0.47;;;13.00;1.40;;;14.25;100.00;96181.23;646552;216;31472;-76
2022/07/13 00:18:53;;;;;;;1.60;0.80;;;13.20;1.40;;;14.34;100.00;96181.81;646530;212;31486;-75
2022/07/13 00:21:35;;;;;;;0.60;0.60;;;13.20;1.40;;;14.38;100.00;96176.08;629530;222;31824;-75
2022/07/13 00:24:16;;;;;;;0.50;0.50;;;13.20;1.40;;;14.27;100.00;96170.66;645633;216;31450;-75
2022/07/13 00:26:58;;;;;;;0.73;0.70;;;13.00;1.40;;;14.18;100.00;96165.16;645840;216;31486;-74
2022/07/13 00:29:40;;;;;;;1.02;0.50;;;13.00;1.40;;;14.08;100.00;96164.83;646389;216;31485;-75
2022/07/13 00:32:21;;;;;;;0.77;0.60;;;12.90;1.40;;;14.06;100.00;96160.28;646076;212;31512;-76
2022/07/13 00:35:51;;;;;;;1.00;0.50;;;12.90;1.40;;;14.13;100.00;96162.52;646626;216;31550;-76
2022/07/13 00:38:33;;;;;;;3.20;0.60;;;13.00;1.40;;;14.16;100.00;96167.92;647087;216;31524;-76
2022/07/13 00:41:15;;;;;;;0.73;0.55;;;13.00;1.40;;;14.26;100.00;96167.89;646585;216;31469;-76
2022/07/13 00:44:07;;;;;;;0.60;0.60;;;13.20;1.40;;;14.25;100.00;96166.67;645392;212;32161;-76
2022/07/13 00:46:53;;;;;;;0.50;0.50;;;13.20;1.40;;;14.22;100.00;96161.63;647359;216;31473;-75
2022/07/13 00:49:35;;;;;;;0.75;0.70;;;13.10;1.40;;;14.11;100.00;96159.52;647338;216;31579;-75
2022/07/13 00:52:19;;;;;;;1.20;0.90;;;12.90;1.40;;;13.98;100.00;96159.11;643189;216;42291;-75
2022/07/13 00:55:01;;;;;;;0.60;0.60;;;12.70;1.40;;;13.80;100.00;96156.84;646827;216;31529;-75
2022/07/13 00:57:43;;;;;;;1.03;0.93;;;12.60;1.40;;;13.68;100.00;96154.47;646925;216;31948;-75
2022/07/13 01:00:25;;;;;;;1.70;0.50;;;12.40;1.40;;;13.66;100.00;96151.84;646556;216;32023;-75
2022/07/13 01:03:07;;;;;;;0.55;0.40;;;12.50;1.40;;;13.69;100.00;96155.05;646094;216;31808;-75
2022/07/13 01:05:48;;;;;;;0.50;0.40;;;12.50;1.40;;;13.82;100.00;96157.06;618367;226;31875;-75
2022/07/13 01:08:30;;;;;;;0.88;0.52;;;12.70;1.40;;;13.91;100.00;96159.73;619567;226;31957;-75
2022/07/13 01:11:12;;;;;;;6.10;0.70;;;12.80;1.40;;;13.83;100.00;96160.91;620540;225;42464;-75
2022/07/13 01:13:56;;;;;;;0.77;0.70;;;12.60;1.40;;;13.77;100.00;96162.30;646542;212;43337;-76
2022/07/13 01:16:38;;;;;;;1.10;0.60;;;12.60;1.40;;;13.72;100.00;96156.88;646673;216;31963;-75
2022/07/13 01:19:20;;;;;;;1.00;0.67;;;12.50;1.40;;;13.68;100.00;96158.44;647300;216;42131;-75
2022/07/13 01:22:02;;;;;;;3.12;1.00;;;12.30;1.40;;;13.51;100.00;96156.01;645247;216;31511;-75
2022/07/13 01:24:43;;;;;;;0.80;0.60;;;12.20;1.40;;;13.43;100.00;96152.70;647283;216;42192;-75
2022/07/13 01:27:25;;;;;;;0.80;0.80;;;12.10;1.40;;;13.44;100.00;96147.89;645832;212;42147;-76
2022/07/13 01:30:08;;;;;;;0.60;0.57;;;12.20;1.40;;;13.45;100.00;96146.17;646749;216;43584;-75
2022/07/13 01:32:52;;;;;;;0.75;0.75;;;12.30;1.40;;;13.55;100.00;96144.09;646064;212;42315;-76
2022/07/13 01:35:52;;;;;;;1.00;1.00;;;12.40;1.40;;;13.59;100.00;96141.58;645376;216;31941;-75
2022/07/13 01:38:33;;;;;;;0.60;0.60;;;12.40;1.40;;;13.51;100.00;96141.67;647051;216;42112;-75
2022/07/13 01:41:15;;;;;;;1.70;0.90;;;12.30;1.40;;;13.42;100.00;96144.00;647035;216;34395;-75
2022/07/13 01:43:57;;;;;;;0.82;0.82;;;12.10;1.40;;;13.36;100.00;96142.86;645855;216;35552;-75
2022/07/13 01:46:39;;;;;;;0.57;0.57;;;12.10;1.40;;;13.37;100.00;96146.14;647665;216;31513;-75
2022/07/13 01:49:24;;;;;;;1.00;0.75;;;12.10;1.40;;;13.30;100.00;96148.20;646381;216;33870;-74
2022/07/13 01:52:08;;;;;;;0.50;0.50;;;11.90;1.40;;;13.12;100.00;96152.83;617604;226;43164;-75
2022/07/13 01:54:50;;;;;;;1.00;0.90;;;11.90;1.40;;;13.25;100.00;96144.34;645994;216;31719;-74
2022/07/13 01:57:32;;;;;;;1.30;0.70;;;12.10;1.40;;;13.33;100.00;96144.28;647029;216;33429;-75
2022/07/13 02:02:52;;;;;;;5.00;0.70;;;12.10;1.40;;;13.19;100.00;96143.61;645547;216;31638;-76
2022/07/13 02:05:35;;;;;;;0.90;0.90;;;11.90;1.40;;;13.07;100.00;96141.59;646244;216;32050;-76
2022/07/13 02:08:17;;;;;;;0.90;0.90;;;11.80;1.40;;;13.21;100.00;96140.83;631193;217;33091;-75
2022/07/13 02:11:01;;;;;;;1.33;0.57;;;12.10;1.40;;;13.39;100.00;96137.80;647065;216;32147;-75
2022/07/13 02:13:45;;;;;;;0.90;0.80;;;12.40;1.40;;;13.48;100.00;96134.13;646911;216;32101;-76
2022/07/13 02:16:26;;;;;;;0.40;0.35;;;12.40;1.40;;;13.50;100.00;96135.27;648039;216;31500;-76
2022/07/13 02:19:08;;;;;;;1.42;0.60;;;12.50;1.40;;;13.53;100.00;96136.02;646331;216;37958;-75
2022/07/13 02:21:49;;;;;;;0.70;0.60;;;12.40;1.40;;;13.56;100.00;96137.77;647905;216;32856;-75
2022/07/13 02:24:33;;;;;;;1.00;0.50;;;12.40;1.40;;;13.34;100.00;96138.20;645239;212;31502;-75
2022/07/13 02:27:16;;;;;;;0.70;0.70;;;12.20;1.40;;;13.37;100.00;96140.21;647387;213;42935;-74
2022/07/13 02:29:57;;;;;;;0.50;0.40;;;12.20;1.40;;;13.43;100.00;96139.67;618359;223;31941;-75
2022/07/13 02:32:39;;;;;;;0.50;0.32;;;12.30;1.40;;;13.44;100.00;96140.68;645364;212;38910;-76
2022/07/13 02:35:51;;;;;;;0.62;0.60;;;12.30;1.40;;;13.28;100.00;96135.55;647594;216;31942;-75
2022/07/13 02:38:36;;;;;;;1.08;0.70;;;12.10;1.40;;;13.37;100.00;96136.41;647615;216;33650;-75
2022/07/13 02:41:18;;;;;;;0.90;0.60;;;12.10;1.40;;;13.42;100.00;96129.84;646220;216;31479;-75
2022/07/13 02:43:59;;;;;;;0.50;0.50;;;12.10;1.40;;;13.39;100.00;96127.84;645799;212;32852;-75
2022/07/13 02:46:41;;;;;;;1.10;0.50;;;12.20;1.40;;;13.40;100.00;96129.13;646489;216;31533;-75
2022/07/13 02:49:26;;;;;;;0.80;0.50;;;12.20;1.40;;;13.41;100.00;96126.86;647934;216;33951;-75
2022/07/13 02:54:42;;;;;;;0.70;0.60;;;12.30;1.40;;;13.47;100.00;96117.73;646071;216;42102;-76
2022/07/13 02:57:25;;;;;;;0.90;0.60;;;12.40;1.40;;;13.52;100.00;96119.82;646599;216;31499;-74
2022/07/13 03:00:09;;;;;;;1.00;0.50;;;12.40;1.40;;;13.57;100.00;96119.33;646568;216;32486;-74
2022/07/13 03:02:51;;;;;;;1.00;0.55;;;12.30;1.40;;;13.56;100.00;96114.97;646869;212;31511;-74
2022/07/13 03:05:32;;;;;;;1.48;0.90;;;12.40;1.40;;;13.55;100.00;96112.98;647037;216;32017;-75
2022/07/13 03:08:14;;;;;;;1.30;1.20;;;12.50;1.40;;;13.57;100.00;96106.45;647089;212;31530;-74
2022/07/13 03:10:56;;;;;;;0.68;0.62;;;12.50;1.40;;;13.60;100.00;96111.86;645597;212;40475;-74
2022/07/13 03:13:37;;;;;;;1.10;0.75;;;12.50;1.40;;;13.59;100.00;96109.59;646966;216;31509;-76
2022/07/13 03:16:22;;;;;;;0.70;0.50;;;12.40;1.40;;;13.62;100.00;96113.63;619850;226;33846;-75
2022/07/13 03:19:07;;;;;;;1.80;0.68;;;12.50;1.40;;;13.63;100.00;96116.92;646002;216;42815;-76
2022/07/13 03:21:48;;;;;;;1.27;0.93;;;12.40;1.40;;;13.49;100.00;96115.36;619443;226;33939;-76
2022/07/13 03:24:29;;;;;;;3.50;0.88;;;12.20;1.40;;;13.47;100.00;96110.12;619000;222;31998;-75
2022/07/13 03:27:11;;;;;;;2.10;1.50;;;12.20;1.40;;;13.53;100.00;96119.85;646189;212;33034;-76
2022/07/13 03:29:53;;;;;;;0.77;0.50;;;12.20;1.40;;;13.47;100.00;96118.50;647359;216;31565;-75
2022/07/13 03:32:34;;;;;;;1.45;0.68;;;12.20;1.40;;;13.51;100.00;96122.66;619699;226;42684;-76
2022/07/13 03:35:51;;;;;;;0.70;0.60;;;12.20;1.40;;;13.48;100.00;96122.89;617898;226;31869;-76
2022/07/13 03:38:36;;;;;;;0.60;0.50;;;12.10;1.40;;;13.51;100.00;96119.51;647588;216;31689;-76
2022/07/13 03:41:18;;;;;;;3.40;0.55;;;12.20;1.40;;;13.41;100.00;96125.71;619261;225;32482;-76
2022/07/13 03:43:59;;;;;;;1.48;1.08;;;12.20;1.40;;;13.49;100.00;96123.14;646361;216;36343;-75
2022/07/13 03:49:21;;;;;;;1.00;0.60;;;12.20;1.40;;;13.55;100.00;96120.08;646670;216;31517;-76
2022/07/13 03:52:03;;;;;;;0.90;0.52;;;12.40;1.40;;;13.60;100.00;96123.47;647434;216;31495;-75
2022/07/13 03:54:44;;;;;;;0.50;0.40;;;12.40;1.40;;;13.64;100.00;96125.27;647210;212;35573;-76
2022/07/13 03:57:26;;;;;;;0.60;0.50;;;12.40;1.40;;;13.68;100.00;96127.00;646133;216;31487;-76
2022/07/13 04:00:11;;;;;;;0.80;0.50;;;12.50;1.40;;;13.72;100.00;96122.32;647441;212;31484;-76
2022/07/13 04:02:53;;;;;;;0.53;0.37;;;12.50;1.40;;;13.76;100.00;96124.55;646349;212;31583;-75
2022/07/13 04:05:35;;;;;;;0.52;0.52;;;12.50;1.40;;;13.71;100.00;96121.37;647944;216;31591;-76
2022/07/13 04:08:17;;;;;;;0.60;0.50;;;12.60;1.40;;;13.76;100.00;96119.58;647039;216;42303;-75
2022/07/13 04:11:02;;;;;;;1.10;0.70;;;12.60;1.40;;;13.77;100.00;96117.16;648026;216;31554;-76
2022/07/13 04:13:43;;;;;;;0.70;0.60;;;12.50;1.40;;;13.83;100.00;96119.11;646219;216;33906;-76
2022/07/13 04:16:25;;;;;;;0.60;0.60;;;12.70;1.40;;;13.88;100.00;96115.75;647294;212;31585;-76
2022/07/13 04:19:06;;;;;;;1.15;0.70;;;12.70;1.40;;;14.01;100.00;96117.55;619204;226;33420;-75
2022/07/13 04:21:48;;;;;;;0.80;0.80;;;12.90;1.40;;;14.10;100.00;96113.28;646983;216;42152;-76
2022/07/13 04:24:33;;;;;;;0.90;0.73;;;13.00;1.40;;;14.19;100.00;96108.66;647521;216;32705;-76
2022/07/13 04:27:14;;;;;;;0.60;0.40;;;13.10;1.40;;;14.29;100.00;96113.77;646504;216;42109;-76
2022/07/13 04:29:56;;;;;;;0.77;0.67;;;13.20;1.40;;;14.38;100.00;96104.27;646717;216;31750;-75
2022/07/13 04:32:38;;;;;;;2.40;1.10;;;13.30;1.40;;;14.50;100.00;96092.42;646222;212;42119;-76
2022/07/13 04:35:54;;;;;;;0.50;0.40;;;13.50;1.40;;;14.65;100.00;96092.64;641438;217;31557;-76
2022/07/13 04:38:35;;;;;;;0.60;0.55;;;13.60;1.40;;;14.80;100.00;96091.34;646254;216;42133;-76
2022/07/13 04:41:17;;;;;;;1.95;0.60;;;13.80;1.40;;;14.93;100.00;96096.99;648375;216;42156;-75
2022/07/13 04:43:59;;;;;;;3.75;1.10;;;13.90;1.40;;;15.05;100.00;96094.42;646901;215;31619;-75
2022/07/13 04:46:41;;;;;;;1.90;0.80;;;14.00;1.40;;;15.15;100.00;96090.83;646187;216;31453;-76
2022/07/13 04:49:24;;;;;;;7.12;1.00;;;14.10;1.40;;;15.32;100.00;96091.19;646933;216;31485;-76
2022/07/13 04:52:06;;;;;;;0.70;0.70;;;14.30;1.40;;;15.45;100.00;96085.78;645465;216;31665;-74
2022/07/13 04:54:48;;;;;;;2.12;0.70;;;14.40;1.40;;;15.58;100.00;96086.91;645395;216;31571;-74
2022/07/13 04:57:29;;;;;;;1.40;1.00;;;14.50;1.40;;;15.67;100.00;96086.55;617881;222;32051;-74
2022/07/13 05:00:12;;;;;;;1.00;0.40;;;14.50;1.40;;;15.74;100.00;96086.08;647006;216;31528;-76
2022/07/13 05:02:53;;;;;;;0.85;0.80;;;14.50;1.40;;;15.84;100.00;96087.59;646835;216;31510;-76
2022/07/13 05:05:35;;;;;;;0.80;0.60;;;14.70;1.40;;;15.93;100.00;96093.33;645484;216;31536;-74
2022/07/13 05:08:23;;;;;;;1.30;0.70;;;14.70;1.40;;;16.10;100.00;96083.92;647357;216;31889;-76
2022/07/13 05:11:10;;;;;;;0.60;0.60;;;15.00;1.40;;;16.24;100.00;96083.25;647340;216;31555;-74
2022/07/13 05:13:52;;;;;;;1.30;0.98;;;15.20;1.40;;;16.43;100.00;96086.80;646188;216;31770;-74
2022/07/13 05:16:34;;;;;;;0.90;0.60;;;15.40;1.40;;;16.60;100.00;96077.88;645851;216;31565;-74
2022/07/13 05:19:19;;;;;;;2.37;0.70;;;15.60;1.40;;;16.75;100.00;96080.30;646125;216;31552;-74
2022/07/13 05:22:00;;;;;;;2.00;0.70;;;15.70;1.40;;;17.00;100.00;96079.08;646410;216;31529;-74
2022/07/13 05:24:43;;;;;;;2.10;0.77;;;16.00;1.40;;;17.12;100.00;96082.16;646547;216;31489;-75
2022/07/13 05:27:27;;;;;;;0.70;0.50;;;16.20;1.40;;;17.25;100.00;96085.12;647646;216;31500;-74
2022/07/13 05:30:10;;;;;;;0.70;0.60;;;16.20;1.40;;;17.39;100.00;96079.57;619373;226;32112;-74
2022/07/13 05:32:52;;;;;;;0.90;0.70;;;16.40;1.40;;;17.51;100.00;96081.95;647935;213;31687;-74
2022/07/13 05:35:56;;;;;;;1.10;0.80;;;16.50;1.40;;;17.71;100.00;96081.86;645782;212;31529;-75
2022/07/13 05:38:44;;;;;;;2.40;0.70;;;16.70;1.40;;;17.83;100.00;96079.97;646715;216;31471;-74
2022/07/13 05:41:27;;;;;;;0.90;0.75;;;16.80;1.40;;;17.97;100.00;96085.36;635416;217;31820;-74
2022/07/13 05:44:08;;;;;;;0.82;0.60;;;16.90;1.40;;;18.06;100.00;96083.80;645957;216;31488;-74
2022/07/13 05:46:57;;;;;;;0.70;0.60;;;17.00;1.40;;;18.20;100.00;96085.53;647058;216;32033;-75
2022/07/13 05:49:37;;;;;;;1.00;0.80;;;17.20;1.40;;;18.35;100.00;96084.05;645559;216;31618;-75
2022/07/13 05:52:25;;;;;;;0.70;0.70;;;17.30;1.40;;;18.46;100.00;96081.95;646513;216;31559;-75
2022/07/13 05:55:08;;;;;;;0.75;0.40;;;17.40;1.40;;;18.57;100.00;96084.95;646036;212;31702;-75
2022/07/13 05:57:49;;;;;;;0.70;0.62;;;17.50;1.40;;;18.71;100.00;96082.85;647287;212;31487;-74
2022/07/13 06:00:31;;;;;;;2.00;0.75;;;17.70;1.40;;;18.81;100.00;96080.59;646089;216;31470;-73
2022/07/13 06:03:13;;;;;;;0.70;0.60;;;17.80;1.40;;;18.90;100.00;96078.75;647028;212;31473;-76
2022/07/13 06:05:54;;;;;;;0.52;0.50;;;17.90;1.40;;;19.07;100.00;96080.83;646562;216;31566;-75
2022/07/13 06:08:36;;;;;;;0.88;0.55;;;18.00;1.40;;;19.13;100.00;96078.56;647029;213;31577;-74
2022/07/13 06:11:24;;;;;;;0.60;0.60;;;18.10;1.40;;;19.26;100.00;96079.03;647009;216;31776;-75
2022/07/13 06:14:07;;;;;;;1.27;0.70;;;18.20;1.40;;;19.39;100.00;96079.08;645916;216;31541;-75
2022/07/13 06:16:53;;;;;;;0.60;0.60;;;18.40;1.40;;;19.47;100.00;96074.64;618934;222;31831;-75
2022/07/13 06:19:34;;;;;;;0.82;0.60;;;18.40;1.40;;;19.60;100.00;96080.20;647606;216;31524;-76
2022/07/13 06:22:16;;;;;;;0.80;0.70;;;18.60;1.40;;;19.69;100.00;96075.88;642200;215;31483;-74
2022/07/13 06:24:58;;;;;;;0.98;0.88;;;18.70;1.40;;;19.84;100.00;96070.80;647252;212;31478;-74
2022/07/13 06:27:39;;;;;;;0.90;0.73;;;18.80;1.40;;;20.00;100.00;96068.20;646871;216;31459;-76
2022/07/13 06:30:27;;;;;;;1.40;0.80;;;19.00;1.40;;;20.13;100.00;96068.66;644924;216;31575;-74
2022/07/13 06:35:51;;;;;;;0.77;0.50;;;19.20;1.40;;;20.36;100.00;96061.59;619092;225;31945;-74
2022/07/13 06:38:32;;;;;;;1.08;0.90;;;19.30;1.40;;;20.43;100.00;96064.62;646640;216;42117;-74
2022/07/13 06:41:14;;;;;;;0.70;0.60;;;19.30;1.40;;;20.50;100.00;96071.08;646022;216;31500;-75
2022/07/13 06:43:56;;;;;;;0.62;0.50;;;19.40;1.40;;;20.62;100.00;96074.38;642295;214;31596;-75
2022/07/13 06:46:38;;;;;;;0.70;0.60;;;19.50;1.40;;;20.66;100.00;96073.13;617592;226;31808;-74
2022/07/13 06:49:19;;;;;;;1.10;0.70;;;19.60;1.40;;;20.93;100.00;96067.14;647484;216;42150;-74
2022/07/13 06:52:01;;;;;;;1.50;0.82;;;19.90;1.40;;;21.04;100.00;96062.17;646084;216;31820;-75
2022/07/13 06:54:43;;;;;;;3.30;0.70;;;20.00;1.40;;;21.17;100.00;96055.27;646777;216;31478;-75
2022/07/13 06:57:24;;;;;;;0.70;0.60;;;20.10;1.40;;;21.16;100.00;96052.80;646056;216;42310;-74
2022/07/13 07:00:07;;;;;;;0.70;0.60;;;20.00;1.40;;;21.28;100.00;96049.50;617303;226;32115;-74
2022/07/13 07:02:51;;;;;;;1.10;0.60;;;20.20;1.40;;;21.33;100.00;96050.20;645448;216;31528;-74
2022/07/13 07:05:33;;;;;;;3.10;0.80;;;20.30;1.40;;;21.58;100.00;96049.91;646703;212;32238;-73
2022/07/13 07:08:18;;;;;;;0.90;0.60;;;20.60;1.40;;;21.56;100.00;96046.31;646133;216;31526;-74
2022/07/13 07:11:00;;;;;;;0.90;0.60;;;20.50;1.40;;;21.64;100.00;96041.45;647445;216;31484;-74
2022/07/13 07:13:41;;;;;;;0.80;0.70;;;20.60;1.40;;;21.88;100.00;96045.65;646196;212;31475;-74
2022/07/13 07:16:23;;;;;;;0.40;0.40;;;20.90;1.40;;;22.01;95.46;96045.84;646857;216;31613;-74
2022/07/13 07:19:05;;;;;;;0.60;0.50;;;21.00;1.40;;;22.07;95.68;96051.57;646351;216;31504;-74
2022/07/13 07:21:49;;;;;;;1.10;0.80;;;21.00;1.40;;;22.23;97.12;96051.08;647085;212;31503;-74
2022/07/13 07:24:31;;;;;;;1.10;0.60;;;21.20;1.40;;;22.36;93.08;96051.55;647084;216;31518;-74
2022/07/13 07:27:13;;;;;;;0.70;0.65;;;21.20;1.40;;;22.44;90.39;96056.12;647083;216;31512;-74
2022/07/13 07:29:58;;;;;;;0.60;0.50;;;21.20;1.40;;;22.56;90.93;96054.02;640197;217;31899;-74
2022/07/13 07:32:39;;;;;;;0.73;0.60;;;21.40;1.40;;;22.85;91.36;96052.25;646481;216;31731;-74
2022/07/13 07:35:51;;;;;;;0.60;0.50;;;21.60;1.40;;;22.87;90.14;96052.23;647706;212;31521;-74
2022/07/13 07:38:32;;;;;;;0.50;0.50;;;21.60;1.40;;;22.91;86.14;96051.08;647351;212;32082;-74
2022/07/13 07:41:14;;;;;;;0.80;0.62;;;21.70;1.40;;;23.19;89.14;96051.98;647030;212;31725;-74
2022/07/13 07:43:56;;;;;;;1.20;0.50;;;21.80;1.40;;;23.34;81.24;96053.26;646743;213;31952;-74
2022/07/13 07:46:41;;;;;;;0.77;0.50;;;22.20;1.40;;;23.41;74.43;96044.27;646257;216;31709;-74
2022/07/13 07:49:22;;;;;;;1.80;0.60;;;22.10;1.40;;;23.43;76.20;96042.91;645469;212;31479;-75
2022/07/13 07:52:04;;;;;;;2.37;0.70;;;22.10;1.40;;;23.54;76.96;96048.13;646176;216;31482;-75
2022/07/13 07:54:46;;;;;;;1.50;0.70;;;22.20;1.40;;;23.76;77.83;96047.85;619442;226;31929;-74
2022/07/13 07:57:27;;;;;;;0.98;0.50;;;22.50;1.40;;;23.78;75.02;96047.53;618627;226;31859;-74
2022/07/13 08:00:11;;;;;;;0.65;0.43;;;22.40;1.40;;;23.82;76.93;96045.48;646633;216;31481;-74
2022/07/13 08:02:52;;;;;;;0.77;0.50;;;22.30;1.40;;;23.93;77.73;96040.80;646932;212;31633;-74
2022/07/13 08:05:34;;;;;;;0.70;0.60;;;22.50;1.40;;;23.96;72.02;96040.35;644950;216;32043;-74
2022/07/13 08:08:16;;;;;;;0.60;0.50;;;22.80;1.40;;;24.13;71.08;96046.22;646658;216;32378;-74
2022/07/13 08:10:58;;;;;;;0.80;0.75;;;22.90;1.40;;;23.95;70.13;96045.34;647333;216;31735;-74
2022/07/13 08:13:39;;;;;;;0.60;0.50;;;22.80;1.40;;;24.14;70.19;96042.92;646054;212;31564;-75
2022/07/13 08:16:21;;;;;;;0.90;0.60;;;23.00;1.40;;;24.36;68.86;96041.66;646083;216;31571;-74
2022/07/13 08:19:03;;;;;;;1.20;0.50;;;23.20;1.40;;;24.51;69.60;96044.84;647063;212;31668;-74
2022/07/13 08:21:44;;;;;;;1.10;0.80;;;23.20;1.40;;;24.68;69.32;96045.14;645656;216;34860;-74
2022/07/13 08:24:26;;;;;;;1.25;1.00;;;23.50;1.40;;;24.78;67.88;96046.73;647283;216;31524;-74
2022/07/13 08:27:08;;;;;;;9.05;1.95;;;23.50;1.40;;;24.86;69.58;96048.83;647741;216;31527;-74
2022/07/13 08:29:49;;;;;;;0.70;0.70;;;23.40;1.40;;;25.02;66.45;96046.52;645921;216;31539;-74
2022/07/13 08:32:34;;;;;;;0.70;0.60;;;23.70;1.40;;;25.00;65.25;96043.38;632098;221;42375;-74
2022/07/13 08:38:47;;;;;;;3.00;0.70;;;24.20;1.40;;;26.02;64.75;96035.38;646716;216;31539;-76
2022/07/13 08:41:34;;;;;;;0.88;0.60;;;24.80;1.40;;;26.45;62.07;96027.09;646736;216;31580;-74
2022/07/13 08:44:16;;;;;;;0.70;0.50;;;25.10;1.40;;;26.13;58.47;96028.38;645871;216;31529;-74
2022/07/13 08:46:58;;;;;;;0.67;0.67;;;24.70;1.40;;;26.48;58.58;96021.02;646029;212;32080;-75
2022/07/13 08:49:40;;;;;;;1.00;0.62;;;25.10;1.40;;;27.02;58.59;96019.22;647509;216;31784;-75
2022/07/13 08:52:21;;;;;;;0.70;0.70;;;25.70;1.40;;;27.73;59.74;96019.42;644732;216;32163;-75
2022/07/13 08:55:04;;;;;;;3.10;0.70;;;26.40;1.40;;;28.22;52.51;96023.57;647318;216;32006;-75
2022/07/13 08:57:45;;;;;;;2.10;0.60;;;26.60;1.40;;;28.02;49.47;96015.61;646155;216;32138;-74
2022/07/13 09:00:27;;;;;;;0.50;0.50;;;26.20;1.40;;;27.86;49.30;96016.97;646972;216;31561;-76
2022/07/13 09:03:08;;;;;;;0.60;0.50;;;25.90;1.40;;;28.27;49.28;96014.45;646765;212;31576;-75
2022/07/13 09:05:50;;;;;;;0.70;0.70;;;26.30;1.40;;;28.55;53.94;96014.54;647061;216;31455;-75
2022/07/13 09:08:32;;;;;;;3.10;0.70;;;26.30;1.40;;;28.32;50.53;96009.91;646282;216;42656;-75
2022/07/13 09:11:13;;;;;;;0.93;0.60;;;26.00;1.40;;;27.51;51.90;96017.05;647183;212;32067;-76
2022/07/13 09:13:56;;;;;;;1.08;0.50;;;26.10;1.40;;;27.71;51.10;96019.84;647902;216;31573;-75
2022/07/13 09:16:38;;;;;;;0.60;0.40;;;26.50;1.40;;;28.93;51.75;96018.91;646002;212;31494;-75
2022/07/13 09:19:25;;;;;;;1.30;0.60;;;27.60;1.40;;;30.14;52.15;96017.30;646285;212;31489;-76
2022/07/13 09:22:10;;;;;;;0.70;0.50;;;28.60;1.40;;;30.28;55.67;96020.24;646004;216;31524;-75
2022/07/13 09:24:54;;;;;;;0.80;0.70;;;29.10;1.40;;;30.25;47.30;96021.73;647511;216;31586;-78
2022/07/13 09:27:47;;;;;;;1.00;0.80;;;28.70;1.40;;;31.12;48.61;96014.75;645478;216;31573;-75
2022/07/13 09:30:28;;;;;;;2.12;0.82;;;29.20;1.40;;;31.92;45.88;96015.72;647230;212;31565;-75
2022/07/13 09:35:51;;;;;;;0.50;0.43;;;32.20;1.40;;;31.59;41.21;96014.66;646724;216;31519;-75
2022/07/13 09:38:34;;;;;;;2.00;0.70;;;31.60;1.40;;;33.64;41.06;96005.17;616985;226;32145;-75
2022/07/13 09:47:00;;;;;;;1.50;0.70;;;31.50;1.40;;;33.19;38.66;96001.85;646104;216;32023;-76
2022/07/13 09:49:42;;;;;;;2.30;0.70;;;31.30;1.40;;;33.96;41.37;96001.53;646530;216;31536;-75
2022/07/13 09:52:23;;;;;;;2.30;0.90;;;32.20;1.40;;;34.85;38.95;95996.86;645253;216;31674;-74
2022/07/13 09:55:06;;;;;;;1.12;0.80;;;31.30;1.40;;;36.62;37.89;95992.06;646992;216;31558;-74
2022/07/13 09:57:47;;;;;;;0.80;0.70;;;31.10;1.40;;;35.60;39.15;95994.50;646188;216;31510;-74
2022/07/13 10:00:29;;;;;;;0.75;0.65;;;31.00;1.40;;;36.01;42.47;95995.23;646682;216;31657;-74
2022/07/13 10:03:13;;;;;;;2.60;0.80;;;32.40;1.40;;;36.66;38.62;95999.09;647195;216;31723;-77
2022/07/13 10:08:35;;;;;;;1.00;0.50;;;31.80;1.40;;;35.66;35.04;96008.17;643938;212;31584;-75
2022/07/13 10:11:17;;;;;;;0.60;0.60;;;31.00;1.40;;;35.66;37.49;96009.91;647419;216;31519;-76
2022/07/13 10:13:58;;;;;;;1.37;0.70;;;31.00;1.40;;;35.39;36.46;96009.31;647121;212;31632;-76
2022/07/13 10:16:40;;;;;;;2.30;0.70;;;30.20;1.40;;;35.14;39.99;96010.83;646298;216;31627;-76
2022/07/13 10:19:23;;;;;;;0.80;0.80;;;30.10;1.40;;;34.36;39.41;96009.77;647569;216;31550;-77
2022/07/13 10:22:20;;;;;;;0.80;0.80;;;29.60;1.40;;;34.82;38.59;96005.45;646211;216;31528;-75
2022/07/13 10:25:01;;;;;;;1.58;0.70;;;29.90;1.40;;;34.65;39.22;95999.11;645036;216;32202;-75
2022/07/13 10:27:43;;;;;;;1.10;0.70;;;30.00;1.40;;;34.35;39.48;96004.14;646099;212;31594;-76
2022/07/13 10:30:25;;;;;;;0.70;0.70;;;30.00;1.40;;;34.90;36.81;96000.72;647621;216;31640;-76
2022/07/13 10:35:52;;;;;;;1.02;0.60;;;31.10;1.40;;;35.38;36.21;96001.33;646812;216;31575;-75
2022/07/13 10:38:34;;;;;;;0.73;0.50;;;31.20;1.40;;;35.22;39.27;96007.23;647554;216;32021;-76
2022/07/13 10:41:21;;;;;;;2.70;0.60;;;31.80;1.40;;;34.70;35.75;96003.06;646896;216;31585;-74
2022/07/13 10:44:05;;;;;;;0.50;0.50;;;30.90;1.40;;;34.82;36.38;96005.91;646587;216;32954;-75
2022/07/13 10:46:49;;;;;;;0.70;0.60;;;30.60;1.40;;;36.86;35.24;95993.28;646364;216;31562;-76
2022/07/13 10:49:36;;;;;;;0.70;0.70;;;31.60;1.40;;;34.59;36.23;96009.30;646879;216;31709;-75
2022/07/13 10:52:43;;;;;;;0.75;0.50;;;30.60;1.40;;;32.70;35.79;96007.58;630808;222;42838;-74
2022/07/13 10:55:28;;;;;;;2.00;0.65;;;29.40;1.40;;;32.20;36.98;96001.83;646556;216;31490;-77
2022/07/13 10:58:41;;;;;;;0.80;0.80;;;29.60;1.40;;;35.48;35.78;95994.22;619440;222;31873;-76
2022/07/13 11:01:36;;;;;;;0.80;0.70;;;32.10;1.40;;;37.13;35.11;95983.14;647639;216;32019;-76
2022/07/13 11:04:17;;;;;;;1.70;0.70;;;32.70;1.40;;;37.44;32.40;95985.25;647486;212;31766;-76
2022/07/13 11:07:06;;;;;;;0.80;0.80;;;33.10;1.40;;;37.43;34.15;95983.27;646579;216;31601;-75
2022/07/13 11:09:47;;;;;;;0.90;0.60;;;33.00;1.40;;;38.12;30.73;95981.55;645143;212;31582;-75
2022/07/13 11:12:32;;;;;;;0.90;0.80;;;33.40;1.40;;;36.60;32.36;95981.50;647981;212;31886;-75
2022/07/13 11:15:20;;;;;;;1.77;0.50;;;31.90;1.40;;;37.19;30.23;95974.23;647290;216;31612;-74
2022/07/13 11:18:27;;;;;;;0.55;0.45;;;31.50;1.40;;;35.58;31.54;95977.85;646829;216;31516;-74
2022/07/13 11:27:02;;;;;;;0.70;0.70;;;31.10;1.40;;;34.42;35.55;95982.33;646138;212;31534;-73
2022/07/13 11:29:47;;;;;;;0.80;0.80;;;30.50;1.40;;;31.96;35.35;95982.20;647141;212;31831;-73
2022/07/13 11:32:28;;;;;;;1.58;0.57;;;29.00;1.40;;;31.70;35.35;95981.00;646552;212;31544;-74
2022/07/13 11:35:51;;;;;;;0.88;0.68;;;29.70;1.40;;;33.09;33.98;95974.48;646418;212;31702;-73
2022/07/13 11:38:36;;;;;;;0.70;0.70;;;30.60;1.40;;;33.91;33.88;95976.07;646608;216;31611;-74
2022/07/13 11:41:20;;;;;;;1.50;0.52;;;31.20;1.40;;;34.03;32.09;95975.41;646628;212;42176;-74
2022/07/13 11:44:01;;;;;;;0.60;0.57;;;31.10;1.40;;;34.54;32.74;95970.33;648038;216;42125;-74
2022/07/13 11:46:44;;;;;;;4.20;0.65;;;31.80;1.40;;;34.90;30.53;95966.30;647423;216;31667;-74
2022/07/13 11:49:25;;;;;;;0.60;0.53;;;32.20;1.40;;;36.40;30.83;95962.43;632388;222;43067;-74
2022/07/13 11:52:06;;;;;;;1.90;0.70;;;33.30;1.40;;;36.00;29.64;95957.51;646602;212;31934;-73
2022/07/13 11:54:57;;;;;;;0.50;0.40;;;32.70;1.40;;;35.86;28.49;95957.30;635116;216;31712;-76
2022/07/13 11:57:47;;;;;;;0.70;0.60;;;32.70;1.40;;;38.17;27.29;95949.53;645632;216;32022;-76
2022/07/13 12:00:26;;;;;;;4.07;0.70;;;35.20;1.40;;;40.55;25.59;95947.73;647861;216;42696;-76
2022/07/13 12:03:08;;;;;;;0.60;0.50;;;35.60;1.40;;;39.96;25.69;95953.27;646233;216;32156;-75
2022/07/13 12:05:50;;;;;;;1.30;0.50;;;34.90;1.40;;;40.81;25.87;95943.38;647017;216;32072;-75
2022/07/13 12:08:39;;;;;;;3.47;0.80;;;35.20;1.40;;;41.49;25.25;95939.20;646351;212;31481;-78